Messwerte Pensacola

Temperatur

Temperatur
°C
1593738000 20.00 20.00 26
1593741600 21.00 21.00 25
1593745200 22.00 22.00 25
1593748800 23.00 23.00 24
1593752400 0.00 0.00 24
1593756000 1.00 1.00 23
1593759600 2.00 2.00 23
1593763200 3.00 3.00 23
1593766800 4.00 4.00 23
1593770400 5.00 5.00
1593774000 6.00 6.00 22
1593777600 7.00 7.00 24
1593781200 8.00 8.00
1593784800 9.00 9.00
1593788400 10.00 10.00
1593792000 11.00 11.00 30
1593795600 12.00 12.00 29
1593799200 13.00 13.00 32
1593802800 14.00 14.00 31
1593806400 15.00 15.00
1593810000 16.00 16.00 31
1593813600 17.00 17.00 29
1593817200 18.00 18.00 27
1593820800 19.00 19.00 27

Aktuellste Messwerte

Wettercharakter
Wetter: klar
Temperatur
26 °C
Feuchtigkeit
75 %
Wind
10 km/hWindrichtung: Nord
Luftdruck
1012 hPa
Messzeit: 3. Juli 2020, 20.00Datenquelle: METAR

Weitere Messstationen in der Nähe

Messstation Temperatur Entfernung
Pensacola 26 °C 19 km
Jack Edwards 28 °C 34 km
Milton 24 °C 50 km
Hurlburt Field 28 °C 62 km
Valparaiso 28 °C 78 km
Mobile 27 °C 78 km
Destin 29 °C 82 km

Wind

Windrichtung Böen Mittelwind
° km/h km/h
1593738000 20.00 19.00 - 20.00 340° 5
1593741600 21.00 20.00 - 21.00 0
1593745200 22.00 21.00 - 22.00 280° 5
1593748800 23.00 22.00 - 23.00 210° 5
1593752400 0.00 23.00 - 0.00 0
1593756000 1.00 0.00 - 1.00 0
1593759600 2.00 1.00 - 2.00 290° 5
1593763200 3.00 2.00 - 3.00 330° 5
1593766800 4.00 3.00 - 4.00 300° 5
1593770400 5.00 4.00 - 5.00
1593774000 6.00 5.00 - 6.00 340° 5
1593777600 7.00 6.00 - 7.00 320° 5
1593781200 8.00 7.00 - 8.00
1593784800 9.00 8.00 - 9.00
1593788400 10.00 9.00 - 10.00
1593792000 11.00 10.00 - 11.00 5
1593795600 12.00 11.00 - 12.00 200° 15
1593799200 13.00 12.00 - 13.00 190° 15
1593802800 14.00 13.00 - 14.00 200° 25
1593806400 15.00 14.00 - 15.00
1593810000 16.00 15.00 - 16.00 210° 30 25
1593813600 17.00 16.00 - 17.00 220° 20
1593817200 18.00 17.00 - 18.00 290° 10
1593820800 19.00 18.00 - 19.00 310° 5

Ihre Wetterstation

Fehlt Ihre Wetterstation auf unserem Portal?

Schreiben Sie an network@meteonews.ch

Klima

Wann ist es am wärmsten? Wann regnet es am wenigsten? Unsere Klimadaten geben Auskunft.